createdAt,value
2018-11-26T00:00:21.230Z,14.60
2018-11-26T00:02:50.064Z,14.57
2018-11-26T00:05:18.727Z,12.33
2018-11-26T00:08:03.787Z,22.70
2018-11-26T00:10:43.213Z,12.27
2018-11-26T00:13:11.594Z,9.00
2018-11-26T00:15:39.950Z,16.00
2018-11-26T00:18:08.319Z,18.60
2018-11-26T00:20:36.667Z,13.63
2018-11-26T00:23:05.358Z,19.10
2018-11-26T00:25:33.663Z,13.93
2018-11-26T00:28:02.050Z,15.00
2018-11-26T00:30:30.618Z,13.77
2018-11-26T00:32:58.922Z,9.70
2018-11-26T00:35:27.279Z,17.10
2018-11-26T00:37:55.615Z,16.07
2018-11-26T00:40:23.958Z,13.80
2018-11-26T00:42:52.318Z,15.60
2018-11-26T00:45:20.736Z,18.03
2018-11-26T00:47:49.048Z,13.87
2018-11-26T00:50:17.394Z,12.43
2018-11-26T00:52:45.747Z,14.40
2018-11-26T00:55:15.877Z,11.10
2018-11-26T00:57:44.194Z,12.63
2018-11-26T01:00:13.044Z,10.80
2018-11-26T01:02:41.405Z,17.77
2018-11-26T01:05:22.751Z,20.57
2018-11-26T01:07:51.084Z,12.83
2018-11-26T01:10:20.118Z,9.63
2018-11-26T01:12:48.495Z,15.03
2018-11-26T01:15:16.919Z,19.37
2018-11-26T01:17:45.231Z,12.00
2018-11-26T01:20:13.579Z,11.57
2018-11-26T01:22:41.935Z,9.57
2018-11-26T01:25:10.258Z,19.83
2018-11-26T01:27:38.637Z,11.83
2018-11-26T01:30:08.618Z,11.93
2018-11-26T01:32:37.188Z,11.83
2018-11-26T01:35:06.618Z,13.60
2018-11-26T01:37:35.010Z,8.77
2018-11-26T01:40:03.716Z,17.70
2018-11-26T01:42:32.082Z,10.77
2018-11-26T01:45:00.467Z,14.70
2018-11-26T01:47:28.854Z,9.70
2018-11-26T01:49:59.139Z,8.63
2018-11-26T01:52:27.448Z,14.00
2018-11-26T01:54:55.826Z,12.80
2018-11-26T01:57:24.140Z,8.77
2018-11-26T01:59:52.478Z,13.77
2018-11-26T02:02:20.822Z,12.13
2018-11-26T02:04:49.162Z,9.63
2018-11-26T02:07:17.530Z,11.53
2018-11-26T02:09:45.923Z,14.60
2018-11-26T02:12:14.242Z,11.13
2018-11-26T02:14:42.575Z,25.07
2018-11-26T02:17:10.916Z,13.47
2018-11-26T02:19:39.271Z,10.40
2018-11-26T02:22:07.623Z,13.27
2018-11-26T02:24:35.959Z,14.53
2018-11-26T02:27:04.443Z,7.30
2018-11-26T02:29:33.714Z,12.73
2018-11-26T02:32:02.147Z,10.87
2018-11-26T02:34:30.540Z,14.77
2018-11-26T02:36:58.852Z,13.93
2018-11-26T02:39:27.174Z,11.83
2018-11-26T02:41:55.531Z,8.60
2018-11-26T02:44:23.906Z,10.37
2018-11-26T02:46:52.249Z,12.63
2018-11-26T02:49:20.600Z,17.87
2018-11-26T02:51:48.924Z,14.07
2018-11-26T02:54:17.275Z,7.13
2018-11-26T02:56:45.622Z,13.30
2018-11-26T02:59:13.955Z,10.77
2018-11-26T03:01:42.261Z,14.03
2018-11-26T03:04:14.397Z,10.07
2018-11-26T03:06:42.911Z,12.60
2018-11-26T03:09:11.276Z,7.97
2018-11-26T03:11:39.632Z,8.10
2018-11-26T03:14:08.011Z,11.53
2018-11-26T03:16:36.360Z,10.23
2018-11-26T03:19:04.900Z,8.93
2018-11-26T03:21:33.210Z,8.50
2018-11-26T03:24:01.601Z,9.93
2018-11-26T03:26:29.902Z,7.97
2018-11-26T03:28:58.251Z,8.07
2018-11-26T03:31:26.601Z,8.10
2018-11-26T03:33:54.922Z,11.00
2018-11-26T03:36:23.247Z,7.30
2018-11-26T03:38:52.718Z,12.30
2018-11-26T03:41:21.533Z,9.23
2018-11-26T03:43:49.915Z,7.03
2018-11-26T03:46:18.280Z,8.30
2018-11-26T03:48:46.598Z,7.50
2018-11-26T03:51:14.990Z,12.37
2018-11-26T03:53:43.435Z,8.87
2018-11-26T03:56:11.746Z,4.77
2018-11-26T03:58:40.074Z,12.93
2018-11-26T04:01:08.455Z,7.63
2018-11-26T04:03:36.752Z,8.33
2018-11-26T04:06:05.519Z,5.63
2018-11-26T04:08:33.847Z,6.17
2018-11-26T04:11:02.176Z,6.90
2018-11-26T04:13:30.514Z,7.50
2018-11-26T04:15:58.877Z,9.57
2018-11-26T04:18:27.246Z,5.17
2018-11-26T04:20:55.557Z,9.07
2018-11-26T04:23:23.955Z,5.67
2018-11-26T04:25:52.314Z,13.87
2018-11-26T04:28:20.631Z,6.90
2018-11-26T04:30:49.350Z,10.23
2018-11-26T04:33:17.726Z,10.90
2018-11-26T04:35:46.056Z,7.93
2018-11-26T04:38:14.455Z,10.70
2018-11-26T04:40:42.775Z,6.00
2018-11-26T04:43:11.103Z,8.53
2018-11-26T04:45:39.453Z,9.40
2018-11-26T04:48:07.819Z,11.27
2018-11-26T04:50:36.209Z,4.30
2018-11-26T04:53:04.573Z,12.93
2018-11-26T04:55:32.926Z,6.63
2018-11-26T04:58:01.291Z,8.27
2018-11-26T05:00:29.687Z,12.70
2018-11-26T05:02:58.035Z,6.47
2018-11-26T05:05:26.366Z,13.17
2018-11-26T05:07:54.743Z,10.73
2018-11-26T05:10:25.883Z,9.13
2018-11-26T05:12:54.237Z,8.20
2018-11-26T05:15:22.549Z,10.90
2018-11-26T05:17:50.899Z,14.73
2018-11-26T05:20:19.246Z,7.60
2018-11-26T05:22:47.682Z,5.13
2018-11-26T05:25:16.037Z,8.10
2018-11-26T05:27:44.393Z,9.73
2018-11-26T05:30:13.479Z,4.50
2018-11-26T05:32:42.091Z,10.27
2018-11-26T05:35:11.335Z,7.93
2018-11-26T05:37:39.679Z,7.37
2018-11-26T05:40:12.464Z,10.23
2018-11-26T05:42:41.138Z,10.20
2018-11-26T05:45:11.671Z,8.67
2018-11-26T05:47:40.022Z,10.20
2018-11-26T05:50:09.801Z,10.70
2018-11-26T05:52:38.767Z,7.63
2018-11-26T05:55:10.353Z,9.43
2018-11-26T05:57:38.686Z,6.43
2018-11-26T06:00:16.167Z,16.07
2018-11-26T06:02:44.514Z,10.87
2018-11-26T06:05:12.852Z,9.37
2018-11-26T06:07:41.202Z,9.87
2018-11-26T06:10:09.875Z,10.13
2018-11-26T06:12:38.286Z,12.27
2018-11-26T06:15:09.456Z,13.00
2018-11-26T06:17:37.844Z,14.33
2018-11-26T06:20:07.303Z,10.83
2018-11-26T06:22:35.676Z,14.23
2018-11-26T06:25:04.920Z,10.23
2018-11-26T06:27:33.265Z,11.23
2018-11-26T06:30:01.620Z,6.57
2018-11-26T06:32:30.040Z,9.40
2018-11-26T06:34:58.383Z,14.27
2018-11-26T06:37:26.726Z,5.37
2018-11-26T06:39:55.079Z,7.87
2018-11-26T06:42:23.375Z,11.17
2018-11-26T06:44:51.727Z,8.90
2018-11-26T06:47:20.086Z,11.47
2018-11-26T06:49:48.451Z,7.43
2018-11-26T06:52:16.827Z,9.43
2018-11-26T06:54:45.189Z,6.10
2018-11-26T06:57:13.603Z,5.40
2018-11-26T06:59:41.995Z,7.63
2018-11-26T07:02:10.383Z,6.03
2018-11-26T07:04:38.867Z,6.57
2018-11-26T07:07:07.203Z,12.03
2018-11-26T07:09:35.602Z,12.93
2018-11-26T07:12:04.074Z,8.23
2018-11-26T07:14:32.416Z,10.97
2018-11-26T07:17:03.743Z,10.23
2018-11-26T07:19:32.061Z,8.00
2018-11-26T07:22:00.404Z,6.97
2018-11-26T07:24:28.799Z,7.23
2018-11-26T07:26:57.140Z,4.90
2018-11-26T07:29:25.487Z,8.30
2018-11-26T07:31:53.980Z,4.93
2018-11-26T07:34:22.408Z,7.87
2018-11-26T07:36:50.779Z,6.27
2018-11-26T07:39:19.173Z,4.60
2018-11-26T07:41:47.502Z,6.00
2018-11-26T07:44:15.842Z,11.27
2018-11-26T07:46:44.154Z,4.53
2018-11-26T07:49:12.727Z,9.23
2018-11-26T07:51:41.081Z,7.47
2018-11-26T07:54:09.470Z,10.73
2018-11-26T07:56:37.830Z,8.23
2018-11-26T07:59:06.202Z,8.63
2018-11-26T08:01:34.551Z,9.40
2018-11-26T08:04:02.891Z,12.37
2018-11-26T08:06:31.287Z,10.87
2018-11-26T08:08:59.624Z,6.30
2018-11-26T08:11:27.938Z,8.33
2018-11-26T08:13:56.292Z,11.60
2018-11-26T08:16:25.652Z,15.80
2018-11-26T08:18:54.074Z,10.63
2018-11-26T08:21:22.392Z,9.83
2018-11-26T08:23:51.032Z,9.63
2018-11-26T08:26:19.434Z,15.37
2018-11-26T08:28:47.766Z,10.27
2018-11-26T08:31:16.115Z,6.63
2018-11-26T08:33:44.459Z,5.43
2018-11-26T08:36:13.078Z,6.90
2018-11-26T08:38:45.456Z,10.73
2018-11-26T08:41:14.881Z,9.50
2018-11-26T08:43:49.047Z,8.93
2018-11-26T08:46:22.797Z,17.73
2018-11-26T08:48:56.537Z,13.10
2018-11-26T08:51:24.871Z,10.37
2018-11-26T08:53:53.230Z,10.03
2018-11-26T08:56:21.571Z,9.63
2018-11-26T08:58:49.955Z,9.63
2018-11-26T09:01:23.643Z,12.53
2018-11-26T09:03:56.071Z,6.77
2018-11-26T09:06:24.432Z,11.83
2018-11-26T09:08:52.771Z,7.47
2018-11-26T09:11:21.095Z,8.77
2018-11-26T09:13:49.523Z,11.17
2018-11-26T09:16:17.902Z,8.37
2018-11-26T09:18:46.243Z,17.67
2018-11-26T09:21:14.555Z,10.27
2018-11-26T09:23:42.964Z,6.87
2018-11-26T09:26:11.335Z,11.80
2018-11-26T09:28:39.887Z,9.97
2018-11-26T09:31:08.263Z,11.17
2018-11-26T09:33:36.627Z,10.77
2018-11-26T09:36:05.269Z,16.90
2018-11-26T09:38:33.643Z,13.37
2018-11-26T09:41:02.018Z,12.57
2018-11-26T09:43:30.419Z,10.17
2018-11-26T09:45:58.809Z,12.30
2018-11-26T09:48:27.326Z,7.80
2018-11-26T09:50:55.728Z,9.53
2018-11-26T09:53:24.101Z,12.27
2018-11-26T09:55:52.491Z,14.20
2018-11-26T09:58:20.869Z,6.67
2018-11-26T10:00:49.314Z,8.20
2018-11-26T10:03:17.764Z,7.63
2018-11-26T10:05:46.149Z,10.63
2018-11-26T10:08:16.576Z,13.63
2018-11-26T10:10:44.933Z,10.00
2018-11-26T10:13:13.321Z,12.90
2018-11-26T10:15:41.693Z,9.07
2018-11-26T10:18:10.137Z,10.53
2018-11-26T10:20:38.637Z,16.17
2018-11-26T10:23:08.830Z,12.77
2018-11-26T10:25:37.736Z,9.10
2018-11-26T10:28:06.290Z,10.47
2018-11-26T10:30:34.696Z,11.93
2018-11-26T10:33:03.085Z,10.23
2018-11-26T10:35:31.615Z,13.03
2018-11-26T10:38:00.096Z,15.73
2018-11-26T10:40:28.513Z,12.17
2018-11-26T10:42:56.909Z,11.40
2018-11-26T10:45:25.688Z,13.97
2018-11-26T10:47:54.122Z,13.27
2018-11-26T10:50:25.093Z,9.00
2018-11-26T10:53:03.171Z,16.53
2018-11-26T10:55:35.261Z,15.17
2018-11-26T10:58:03.909Z,13.33
2018-11-26T11:00:37.942Z,17.13
2018-11-26T11:03:06.494Z,8.97
2018-11-26T11:05:35.849Z,11.70
2018-11-26T11:08:04.634Z,7.70
2018-11-26T11:10:33.447Z,12.67
2018-11-26T11:13:01.821Z,9.40
2018-11-26T11:15:30.240Z,14.13
2018-11-26T11:17:58.645Z,12.43
2018-11-26T11:20:28.018Z,14.57
2018-11-26T11:22:56.412Z,20.13
2018-11-26T11:25:24.921Z,12.63
2018-11-26T11:27:53.382Z,16.23
2018-11-26T11:30:23.236Z,10.70
2018-11-26T11:32:51.716Z,16.53
2018-11-26T11:35:20.287Z,12.30
2018-11-26T11:37:49.406Z,12.87
2018-11-26T11:40:23.717Z,15.93
2018-11-26T11:42:52.285Z,14.97
2018-11-26T11:45:21.066Z,13.53
2018-11-26T11:47:49.427Z,17.23
2018-11-26T11:50:18.898Z,17.80
2018-11-26T11:52:47.562Z,13.47
2018-11-26T11:55:16.974Z,11.63
2018-11-26T11:57:45.518Z,6.77
2018-11-26T12:00:24.825Z,10.93
2018-11-26T12:02:53.249Z,11.07
2018-11-26T12:05:21.680Z,11.87
2018-11-26T12:07:50.119Z,12.27
2018-11-26T12:10:18.516Z,7.37
2018-11-26T12:12:46.878Z,20.10
2018-11-26T12:15:16.263Z,12.67
2018-11-26T12:17:45.811Z,10.37
2018-11-26T12:20:14.786Z,13.80
2018-11-26T12:22:43.570Z,16.43
2018-11-26T12:25:15.102Z,12.83
2018-11-26T12:27:43.645Z,19.17
2018-11-26T12:30:29.629Z,10.27
2018-11-26T12:32:58.002Z,18.47
2018-11-26T12:35:26.831Z,17.10
2018-11-26T12:37:55.204Z,18.80
2018-11-26T12:40:24.567Z,16.33
2018-11-26T12:42:54.185Z,17.17
2018-11-26T12:45:23.670Z,21.10
2018-11-26T12:47:52.072Z,12.33
2018-11-26T12:50:20.559Z,17.53
2018-11-26T12:52:49.150Z,11.50
2018-11-26T12:55:19.334Z,12.97
2018-11-26T12:57:48.541Z,13.97
2018-11-26T13:00:19.391Z,9.30
2018-11-26T13:02:51.679Z,9.00
2018-11-26T13:05:20.702Z,12.07
2018-11-26T13:07:49.518Z,14.77
2018-11-26T13:10:19.322Z,12.87
2018-11-26T13:12:48.390Z,12.43
2018-11-26T13:15:31.687Z,11.90
2018-11-26T13:18:00.125Z,13.13
2018-11-26T13:20:29.603Z,9.50
2018-11-26T13:22:58.169Z,20.10
2018-11-26T13:25:29.680Z,14.53
2018-11-26T13:28:01.308Z,13.57
2018-11-26T13:30:31.376Z,9.97
2018-11-26T13:33:01.205Z,19.03
2018-11-26T13:35:29.911Z,11.57
2018-11-26T13:37:58.309Z,14.63
2018-11-26T13:40:26.805Z,14.80
2018-11-26T13:42:55.210Z,18.87
2018-11-26T13:45:26.981Z,13.33
2018-11-26T13:47:55.371Z,11.60
2018-11-26T13:50:39.973Z,15.10
2018-11-26T13:53:08.321Z,18.70
2018-11-26T13:55:36.751Z,23.13
2018-11-26T13:58:05.440Z,14.33
2018-11-26T14:00:33.812Z,18.30
2018-11-26T14:03:04.572Z,13.17
2018-11-26T14:05:33.599Z,19.43
2018-11-26T14:08:01.977Z,14.47
2018-11-26T14:10:30.333Z,12.87
2018-11-26T14:13:04.957Z,12.17
2018-11-26T14:15:33.349Z,12.13
2018-11-26T14:18:01.806Z,7.27
2018-11-26T14:20:30.197Z,13.73
2018-11-26T14:22:58.712Z,14.83
2018-11-26T14:25:27.092Z,16.70
2018-11-26T14:27:55.495Z,10.07
2018-11-26T14:30:25.681Z,10.97
2018-11-26T14:32:54.461Z,6.70
2018-11-26T14:35:22.836Z,11.37
2018-11-26T14:37:55.089Z,10.67
2018-11-26T14:40:25.747Z,12.67
2018-11-26T14:42:54.160Z,13.37
2018-11-26T14:45:22.585Z,7.23
2018-11-26T14:47:50.934Z,14.83
2018-11-26T14:50:19.295Z,7.53
2018-11-26T14:52:48.519Z,7.80
2018-11-26T14:55:19.085Z,13.93
2018-11-26T14:57:47.473Z,17.03
2018-11-26T15:00:16.951Z,12.37
2018-11-26T15:02:45.408Z,9.23
2018-11-26T15:05:13.993Z,6.97
2018-11-26T15:07:42.410Z,15.50
2018-11-26T15:10:13.946Z,8.87
2018-11-26T15:12:42.507Z,10.13
2018-11-26T15:15:15.614Z,12.57
2018-11-26T15:17:44.606Z,12.37
2018-11-26T15:20:14.934Z,17.37
2018-11-26T15:22:43.339Z,17.30
2018-11-26T15:25:12.871Z,11.10
2018-11-26T15:27:41.698Z,12.63
2018-11-26T15:30:11.700Z,9.93
2018-11-26T15:32:40.424Z,10.27
2018-11-26T15:35:11.464Z,12.00
2018-11-26T15:37:39.822Z,10.33
2018-11-26T15:40:09.240Z,9.90
2018-11-26T15:42:37.645Z,14.77
2018-11-26T15:45:10.289Z,16.37
2018-11-26T15:47:38.693Z,17.83
2018-11-26T15:50:07.521Z,10.33
2018-11-26T15:52:35.876Z,15.57
2018-11-26T15:55:04.628Z,16.03
2018-11-26T15:57:33.054Z,13.57
2018-11-26T16:00:01.642Z,17.60
2018-11-26T16:02:30.322Z,26.33
2018-11-26T16:04:58.772Z,30.50
2018-11-26T16:07:27.145Z,23.60
2018-11-26T16:09:55.552Z,26.00
2018-11-26T16:12:23.876Z,36.73
2018-11-26T16:14:52.345Z,39.73
2018-11-26T16:17:20.701Z,33.43
2018-11-26T16:19:49.124Z,29.30
2018-11-26T16:22:17.474Z,34.83
2018-11-26T16:24:45.849Z,37.63
2018-11-26T16:27:14.224Z,27.70
2018-11-26T16:29:42.588Z,39.00
2018-11-26T16:32:10.943Z,37.43
2018-11-26T16:34:39.365Z,35.20
2018-11-26T16:37:07.828Z,26.40
2018-11-26T16:39:36.229Z,32.00
2018-11-26T16:42:04.639Z,32.40
2018-11-26T16:44:33.717Z,31.33
2018-11-26T16:47:02.232Z,29.20
2018-11-26T16:49:30.572Z,22.80
2018-11-26T16:51:58.936Z,23.77
2018-11-26T16:54:27.349Z,25.67
2018-11-26T16:56:55.745Z,26.03
2018-11-26T16:59:24.152Z,30.97
2018-11-26T17:01:52.509Z,27.97
2018-11-26T17:04:20.948Z,28.27
2018-11-26T17:06:49.354Z,23.37
2018-11-26T17:09:17.779Z,31.60
2018-11-26T17:11:46.122Z,31.20
2018-11-26T17:14:14.492Z,31.90
2018-11-26T17:16:42.850Z,26.10
2018-11-26T17:19:11.232Z,19.83
2018-11-26T17:21:39.742Z,20.97
2018-11-26T17:24:08.213Z,23.30
2018-11-26T17:26:36.780Z,19.20
2018-11-26T17:29:05.699Z,14.83
2018-11-26T17:31:34.181Z,20.87
2018-11-26T17:34:02.645Z,23.77
2018-11-26T17:36:31.205Z,18.70
2018-11-26T17:38:59.607Z,23.63
2018-11-26T17:41:28.172Z,32.53
2018-11-26T17:43:56.583Z,25.33
2018-11-26T17:46:24.952Z,27.20
2018-11-26T17:48:53.352Z,86.27
2018-11-26T17:51:21.784Z,122.70
2018-11-26T17:53:50.310Z,61.77
2018-11-26T17:56:18.762Z,46.70
2018-11-26T17:58:47.191Z,39.23
2018-11-26T18:01:20.892Z,34.70
2018-11-26T18:03:49.298Z,23.03
2018-11-26T18:06:18.188Z,18.60
2018-11-26T18:08:46.556Z,13.83
2018-11-26T18:11:15.095Z,14.30
2018-11-26T18:13:43.485Z,17.27
2018-11-26T18:16:12.007Z,35.57
2018-11-26T18:18:40.521Z,23.43
2018-11-26T18:21:08.967Z,24.23
2018-11-26T18:23:37.863Z,26.37
2018-11-26T18:26:06.289Z,19.33
2018-11-26T18:28:34.679Z,23.80
2018-11-26T18:31:03.071Z,19.97
2018-11-26T18:33:31.513Z,27.73
2018-11-26T18:36:01.889Z,15.50
2018-11-26T18:38:30.601Z,25.53
2018-11-26T18:40:58.984Z,28.37
2018-11-26T18:43:27.469Z,24.37
2018-11-26T18:45:55.928Z,21.70
2018-11-26T18:48:24.832Z,20.43
2018-11-26T18:50:53.460Z,22.93
2018-11-26T18:53:22.092Z,19.67
2018-11-26T18:55:50.498Z,23.43
2018-11-26T18:58:18.919Z,13.97
2018-11-26T19:00:50.904Z,21.13
2018-11-26T19:03:20.514Z,25.33
2018-11-26T19:05:50.285Z,22.63
2018-11-26T19:08:18.773Z,23.00
2018-11-26T19:10:48.038Z,23.57
2018-11-26T19:13:22.988Z,32.83
2018-11-26T19:15:52.777Z,20.77
2018-11-26T19:18:23.320Z,30.27
2018-11-26T19:20:51.939Z,23.43
2018-11-26T19:23:20.519Z,21.20
2018-11-26T19:25:50.295Z,26.17
2018-11-26T19:28:20.544Z,25.93
2018-11-26T19:30:47.115Z,28.10
2018-11-26T19:33:15.453Z,13.67
2018-11-26T19:35:43.817Z,29.80
2018-11-26T19:38:12.223Z,33.77
2018-11-26T19:40:40.857Z,22.10
2018-11-26T19:43:09.396Z,24.90
2018-11-26T19:45:38.063Z,20.07
2018-11-26T19:48:07.268Z,22.47
2018-11-26T19:50:35.740Z,30.03
2018-11-26T19:53:05.027Z,28.20
2018-11-26T19:55:33.424Z,24.30
2018-11-26T19:58:01.957Z,28.90
2018-11-26T20:00:30.754Z,26.87
2018-11-26T20:03:06.520Z,25.07
2018-11-26T20:05:39.898Z,22.30
2018-11-26T20:08:08.392Z,29.07
2018-11-26T20:10:36.803Z,28.30
2018-11-26T20:13:05.383Z,29.57
2018-11-26T20:15:34.839Z,22.50
2018-11-26T20:18:03.266Z,28.77
2018-11-26T20:20:31.690Z,30.70
2018-11-26T20:23:00.173Z,32.70
2018-11-26T20:25:28.876Z,29.53
2018-11-26T20:27:57.219Z,20.13
2018-11-26T20:30:25.619Z,36.57
2018-11-26T20:32:54.005Z,27.83
2018-11-26T20:35:22.356Z,30.70
2018-11-26T20:37:50.684Z,16.17
2018-11-26T20:40:19.091Z,25.83
2018-11-26T20:42:49.941Z,18.63
2018-11-26T20:45:18.350Z,12.13
2018-11-26T20:47:47.591Z,17.20
2018-11-26T20:50:20.316Z,9.87
2018-11-26T20:52:48.782Z,10.37
2018-11-26T20:55:19.652Z,10.67
2018-11-26T20:57:48.847Z,9.67
2018-11-26T21:00:19.335Z,10.43
2018-11-26T21:02:48.837Z,8.53
2018-11-26T21:05:17.329Z,8.33
2018-11-26T21:07:45.830Z,10.83
2018-11-26T21:10:15.039Z,8.77
2018-11-26T21:12:43.491Z,8.97
2018-11-26T21:15:14.856Z,15.00
2018-11-26T21:17:44.680Z,8.20
2018-11-26T21:20:26.268Z,10.08
2018-11-26T21:22:55.261Z,10.33
2018-11-26T21:25:23.693Z,9.33
2018-11-26T21:27:52.088Z,11.30
2018-11-26T21:30:20.458Z,12.00
2018-11-26T21:32:48.865Z,15.40
2018-11-26T21:35:19.018Z,8.07
2018-11-26T21:37:49.681Z,11.23
2018-11-26T21:40:21.242Z,12.00
2018-11-26T21:42:49.598Z,11.43
2018-11-26T21:45:25.329Z,9.13
2018-11-26T21:47:53.706Z,14.20
2018-11-26T21:50:22.242Z,8.80
2018-11-26T21:52:50.616Z,8.77
2018-11-26T21:55:19.699Z,6.10
2018-11-26T21:57:48.044Z,7.77
2018-11-26T22:00:25.018Z,9.50
2018-11-26T22:02:53.799Z,11.57
2018-11-26T22:05:22.225Z,10.60
2018-11-26T22:07:50.636Z,8.83
2018-11-26T22:10:21.787Z,12.23
2018-11-26T22:12:52.218Z,9.07
2018-11-26T22:15:20.626Z,10.97
2018-11-26T22:17:49.092Z,10.50
2018-11-26T22:20:26.477Z,15.20
2018-11-26T22:22:55.002Z,10.20
2018-11-26T22:25:23.351Z,13.43
2018-11-26T22:27:52.280Z,12.97
2018-11-26T22:30:21.787Z,11.80
2018-11-26T22:32:50.156Z,16.13
2018-11-26T22:35:18.524Z,14.30
2018-11-26T22:37:46.869Z,6.67
2018-11-26T22:40:16.251Z,8.57
2018-11-26T22:42:44.741Z,13.80
2018-11-26T22:45:15.999Z,6.83
2018-11-26T22:47:46.843Z,7.30
2018-11-26T22:50:15.538Z,10.10
2018-11-26T22:52:43.955Z,10.17
2018-11-26T22:55:13.316Z,15.50
2018-11-26T22:57:42.212Z,11.17
2018-11-26T23:00:15.840Z,9.47
2018-11-26T23:02:44.252Z,8.63
2018-11-26T23:05:12.630Z,7.83
2018-11-26T23:07:41.007Z,9.20
2018-11-26T23:10:09.732Z,7.30
2018-11-26T23:12:38.113Z,4.23
2018-11-26T23:15:11.386Z,8.63
2018-11-26T23:17:39.952Z,9.57
2018-11-26T23:20:12.322Z,6.30
2018-11-26T23:22:40.673Z,15.37
2018-11-26T23:25:10.415Z,4.70
2018-11-26T23:27:38.868Z,4.27
2018-11-26T23:30:26.293Z,8.20
2018-11-26T23:32:57.312Z,10.23
2018-11-26T23:35:25.691Z,14.87
2018-11-26T23:37:54.077Z,12.50
2018-11-26T23:40:22.496Z,13.80
2018-11-26T23:42:50.892Z,11.00
2018-11-26T23:45:20.247Z,15.07
2018-11-26T23:47:48.631Z,12.53
2018-11-26T23:50:17.224Z,10.07
2018-11-26T23:52:45.977Z,10.17
2018-11-26T23:55:19.205Z,7.53
2018-11-26T23:57:47.585Z,11.57
